Flight Track Log - Related Links

Times and Time Zones

All times are in EDT time to prevent confusion due to time zone crossing. See the N373SR flight status page for this flight to view local times or setup timezone preferences in your user account.

Time Position Orientation Groundspeed Altitude Reporting Facility
EDT Latitude Longitude Course Direction KTS MPH feet Rate Location/Type
Sat 07:42:15 AM 41.2333 -72.9333 72° East 166 191 5,600  Level New York TRACON
Sat 07:43:15 AM 41.2500 -72.8667 72° East 163 188 5,600  Level New York TRACON
Sat 07:45:00 AM 41.2635 -72.7937 76° East  Level Estimated
Sat 07:46:15 AM 41.2833 -72.7000 76° East 167 192 5,600  Level New York TRACON
Sat 07:48:15 AM 41.3000 -72.5667 81° East 168 193 5,600 -33 Level New York TRACON
Sat 07:49:15 AM 41.3103 -72.5231 73° East 165 190 5,500 -102 Descending Boston Center
Sat 07:50:13 AM 41.3208 -72.4622 77° East 165 190 5,400  Descending Boston Center
Sat 07:51:16 AM 41.3333 -72.4042 74° East 164 189 5,500 49 Climbing Boston Center
Sat 07:52:16 AM 41.3458 -72.3461 74° East 167 192 5,500  Level Boston Center
Sat 07:53:18 AM 41.3542 -72.2853 80° East 164 189 5,500  Level Boston Center
Sat 07:54:18 AM 41.3664 -72.2244 75° East 169 194 5,500  Level Boston Center
Sat 07:55:19 AM 41.3767 -72.1606 78° East 167 192 5,500  Level Boston Center
Sat 07:56:20 AM 41.3869 -72.1025 77° East 172 198 5,500  Level Boston Center
Sat 07:57:14 AM 41.3953 -72.0444 79° East 180 207 5,500  Level Boston Center
Sat 07:58:13 AM 41.4053 -71.9861 77° East 161 185 5,500  Level Boston Center
Sat 07:59:08 AM 41.4156 -71.9281 77° East 168 193 5,500 -52 Level Boston Center
Sat 08:00:09 AM 41.4297 -71.8642 74° East 158 182 5,400 -298 Descending Boston Center
Sat 08:01:09 AM 41.4400 -71.7978 78° East 192 221 4,900 -496 Descending Boston Center
Sat 08:02:10 AM 41.4478 -71.7339 81° East 184 212 4,400 -522 Descending Boston Center
Sat 08:03:04 AM 41.4558 -71.6700 80° East 189 217 3,900 -595 Descending Boston Center
Sat 08:04:11 AM 41.4678 -71.5925 78° East 191 220 3,200 -586 Descending Boston Center
Sat 08:05:17 AM 41.4797 -71.5147 78° East 190 219 2,600 -545 Descending Boston Center

Login

Don't have an account? Register now (free) for customized features, flight alerts, and more!